sensor_id;sensor_type;location;lat;lon;timestamp;temperature;humidity
41547;DHT22;27271;45.412;10.852;2024-03-02T00:01:05;10.40;99.90
41547;DHT22;27271;45.412;10.852;2024-03-02T00:04:28;10.40;94.70
41547;DHT22;27271;45.412;10.852;2024-03-02T00:07:55;10.50;91.20
41547;DHT22;27271;45.412;10.852;2024-03-02T00:11:18;10.50;95.50
41547;DHT22;27271;45.412;10.852;2024-03-02T00:14:41;10.50;79.00
41547;DHT22;27271;45.412;10.852;2024-03-02T00:18:03;10.50;76.30
41547;DHT22;27271;45.412;10.852;2024-03-02T00:21:28;10.50;75.10
41547;DHT22;27271;45.412;10.852;2024-03-02T00:24:51;10.60;87.10
41547;DHT22;27271;45.412;10.852;2024-03-02T00:28:27;10.60;76.00
41547;DHT22;27271;45.412;10.852;2024-03-02T00:31:50;10.50;68.80
41547;DHT22;27271;45.412;10.852;2024-03-02T00:35:12;10.60;51.00
41547;DHT22;27271;45.412;10.852;2024-03-02T00:38:48;10.80;19.60
41547;DHT22;27271;45.412;10.852;2024-03-02T00:42:11;10.70;14.20
41547;DHT22;27271;45.412;10.852;2024-03-02T00:45:34;10.80;8.90
41547;DHT22;27271;45.412;10.852;2024-03-02T00:49:00;10.80;1.00
41547;DHT22;27271;45.412;10.852;2024-03-02T00:52:24;10.90;1.00
41547;DHT22;27271;45.412;10.852;2024-03-02T00:55:46;10.80;1.00
41547;DHT22;27271;45.412;10.852;2024-03-02T00:59:13;10.80;1.30
41547;DHT22;27271;45.412;10.852;2024-03-02T01:02:35;10.80;1.00
41547;DHT22;27271;45.412;10.852;2024-03-02T01:05:57;10.80;1.00
41547;DHT22;27271;45.412;10.852;2024-03-02T01:09:19;10.80;1.00
41547;DHT22;27271;45.412;10.852;2024-03-02T01:12:42;10.80;1.00
41547;DHT22;27271;45.412;10.852;2024-03-02T01:16:04;10.80;1.00
41547;DHT22;27271;45.412;10.852;2024-03-02T01:19:26;10.80;1.00
41547;DHT22;27271;45.412;10.852;2024-03-02T01:22:48;10.80;1.00
41547;DHT22;27271;45.412;10.852;2024-03-02T01:26:11;10.80;1.00
41547;DHT22;27271;45.412;10.852;2024-03-02T01:29:33;10.90;1.00
41547;DHT22;27271;45.412;10.852;2024-03-02T01:32:57;10.80;1.00
41547;DHT22;27271;45.412;10.852;2024-03-02T01:36:21;10.70;1.00
41547;DHT22;27271;45.412;10.852;2024-03-02T01:39:43;10.60;1.00
41547;DHT22;27271;45.412;10.852;2024-03-02T01:43:08;10.60;1.00
41547;DHT22;27271;45.412;10.852;2024-03-02T01:46:30;10.40;1.00
41547;DHT22;27271;45.412;10.852;2024-03-02T01:49:52;10.50;1.00
41547;DHT22;27271;45.412;10.852;2024-03-02T01:53:14;10.30;1.00
41547;DHT22;27271;45.412;10.852;2024-03-02T01:56:36;10.40;1.00
41547;DHT22;27271;45.412;10.852;2024-03-02T01:59:59;10.30;1.00
41547;DHT22;27271;45.412;10.852;2024-03-02T02:03:32;10.20;1.00
41547;DHT22;27271;45.412;10.852;2024-03-02T02:06:54;10.10;1.00
41547;DHT22;27271;45.412;10.852;2024-03-02T02:10:16;10.00;1.00
41547;DHT22;27271;45.412;10.852;2024-03-02T02:13:39;9.90;15.90
41547;DHT22;27271;45.412;10.852;2024-03-02T02:17:01;9.80;38.80
41547;DHT22;27271;45.412;10.852;2024-03-02T02:20:24;9.70;52.20
41547;DHT22;27271;45.412;10.852;2024-03-02T02:23:46;9.70;37.70
41547;DHT22;27271;45.412;10.852;2024-03-02T02:27:10;9.70;50.60
41547;DHT22;27271;45.412;10.852;2024-03-02T02:30:33;9.50;81.10
41547;DHT22;27271;45.412;10.852;2024-03-02T02:33:55;9.50;95.00
41547;DHT22;27271;45.412;10.852;2024-03-02T02:37:17;9.40;72.10
41547;DHT22;27271;45.412;10.852;2024-03-02T02:40:39;9.50;52.60
41547;DHT22;27271;45.412;10.852;2024-03-02T02:44:01;9.60;22.40
41547;DHT22;27271;45.412;10.852;2024-03-02T02:47:24;9.70;1.00
41547;DHT22;27271;45.412;10.852;2024-03-02T02:50:47;9.90;1.00
41547;DHT22;27271;45.412;10.852;2024-03-02T02:54:10;10.00;1.00
41547;DHT22;27271;45.412;10.852;2024-03-02T02:57:33;10.00;1.00
41547;DHT22;27271;45.412;10.852;2024-03-02T03:00:59;10.00;1.00
41547;DHT22;27271;45.412;10.852;2024-03-02T03:04:22;10.10;1.00
41547;DHT22;27271;45.412;10.852;2024-03-02T03:07:44;10.10;1.00
41547;DHT22;27271;45.412;10.852;2024-03-02T03:11:07;10.20;1.00
41547;DHT22;27271;45.412;10.852;2024-03-02T03:14:29;10.30;1.00
41547;DHT22;27271;45.412;10.852;2024-03-02T03:17:51;10.30;1.00
41547;DHT22;27271;45.412;10.852;2024-03-02T03:21:13;10.30;1.00
41547;DHT22;27271;45.412;10.852;2024-03-02T03:24:35;10.30;1.00
41547;DHT22;27271;45.412;10.852;2024-03-02T03:27:57;10.40;1.00
41547;DHT22;27271;45.412;10.852;2024-03-02T03:31:19;10.50;1.00
41547;DHT22;27271;45.412;10.852;2024-03-02T03:34:42;10.50;1.00
41547;DHT22;27271;45.412;10.852;2024-03-02T03:38:04;10.40;1.00
41547;DHT22;27271;45.412;10.852;2024-03-02T03:41:26;10.40;1.00
41547;DHT22;27271;45.412;10.852;2024-03-02T03:44:48;10.40;1.00
41547;DHT22;27271;45.412;10.852;2024-03-02T03:48:10;10.50;1.00
41547;DHT22;27271;45.412;10.852;2024-03-02T03:51:32;10.50;1.00
41547;DHT22;27271;45.412;10.852;2024-03-02T03:54:54;10.40;1.00
41547;DHT22;27271;45.412;10.852;2024-03-02T03:58:16;10.50;1.00
41547;DHT22;27271;45.412;10.852;2024-03-02T04:01:43;10.50;1.00
41547;DHT22;27271;45.412;10.852;2024-03-02T04:05:06;10.60;1.00
41547;DHT22;27271;45.412;10.852;2024-03-02T04:08:31;10.60;1.00
41547;DHT22;27271;45.412;10.852;2024-03-02T04:11:53;10.60;1.00
41547;DHT22;27271;45.412;10.852;2024-03-02T04:15:16;10.60;1.00
41547;DHT22;27271;45.412;10.852;2024-03-02T04:18:38;10.50;1.00
41547;DHT22;27271;45.412;10.852;2024-03-02T04:22:01;10.50;1.00
41547;DHT22;27271;45.412;10.852;2024-03-02T04:25:36;10.40;1.00
41547;DHT22;27271;45.412;10.852;2024-03-02T04:28:58;10.40;1.00
41547;DHT22;27271;45.412;10.852;2024-03-02T04:32:20;10.30;1.00
41547;DHT22;27271;45.412;10.852;2024-03-02T04:35:42;10.30;1.00
41547;DHT22;27271;45.412;10.852;2024-03-02T04:39:04;10.30;1.00
41547;DHT22;27271;45.412;10.852;2024-03-02T04:42:26;10.30;1.00
41547;DHT22;27271;45.412;10.852;2024-03-02T04:45:48;10.30;1.00
41547;DHT22;27271;45.412;10.852;2024-03-02T04:49:10;10.20;1.00
41547;DHT22;27271;45.412;10.852;2024-03-02T04:52:33;10.20;1.00
41547;DHT22;27271;45.412;10.852;2024-03-02T04:55:55;10.20;1.00
41547;DHT22;27271;45.412;10.852;2024-03-02T04:59:18;10.30;1.00
41547;DHT22;27271;45.412;10.852;2024-03-02T05:02:40;10.40;1.00
41547;DHT22;27271;45.412;10.852;2024-03-02T05:06:02;10.40;1.00
41547;DHT22;27271;45.412;10.852;2024-03-02T05:09:24;10.50;1.00
41547;DHT22;27271;45.412;10.852;2024-03-02T05:12:46;10.40;1.00
41547;DHT22;27271;45.412;10.852;2024-03-02T05:16:19;10.30;1.00
41547;DHT22;27271;45.412;10.852;2024-03-02T05:19:41;10.40;6.80
41547;DHT22;27271;45.412;10.852;2024-03-02T05:23:03;10.20;9.60
41547;DHT22;27271;45.412;10.852;2024-03-02T05:26:25;10.10;31.80
41547;DHT22;27271;45.412;10.852;2024-03-02T05:29:47;10.00;90.40
41547;DHT22;27271;45.412;10.852;2024-03-02T05:33:09;9.90;89.90
41547;DHT22;27271;45.412;10.852;2024-03-02T05:36:32;9.80;97.20
41547;DHT22;27271;45.412;10.852;2024-03-02T05:39:54;9.90;99.90
41547;DHT22;27271;45.412;10.852;2024-03-02T05:43:16;9.80;92.60
41547;DHT22;27271;45.412;10.852;2024-03-02T05:46:38;9.80;90.70
41547;DHT22;27271;45.412;10.852;2024-03-02T05:50:02;9.80;99.90
41547;DHT22;27271;45.412;10.852;2024-03-02T05:53:25;9.80;80.70
41547;DHT22;27271;45.412;10.852;2024-03-02T05:56:48;9.70;91.30
41547;DHT22;27271;45.412;10.852;2024-03-02T06:00:10;9.70;47.90
41547;DHT22;27271;45.412;10.852;2024-03-02T06:03:34;9.90;57.80
41547;DHT22;27271;45.412;10.852;2024-03-02T06:06:56;9.90;34.20
41547;DHT22;27271;45.412;10.852;2024-03-02T06:10:18;9.80;48.70
41547;DHT22;27271;45.412;10.852;2024-03-02T06:13:41;9.90;41.10
41547;DHT22;27271;45.412;10.852;2024-03-02T06:17:03;9.90;47.60
41547;DHT22;27271;45.412;10.852;2024-03-02T06:20:25;9.80;39.20
41547;DHT22;27271;45.412;10.852;2024-03-02T06:23:48;9.90;49.80
41547;DHT22;27271;45.412;10.852;2024-03-02T06:27:10;9.90;27.20
41547;DHT22;27271;45.412;10.852;2024-03-02T06:30:32;10.00;24.30
41547;DHT22;27271;45.412;10.852;2024-03-02T06:33:54;10.00;19.80
41547;DHT22;27271;45.412;10.852;2024-03-02T06:37:16;10.10;27.30
41547;DHT22;27271;45.412;10.852;2024-03-02T06:40:39;10.10;7.60
41547;DHT22;27271;45.412;10.852;2024-03-02T06:44:01;10.10;6.90
41547;DHT22;27271;45.412;10.852;2024-03-02T06:47:23;10.10;28.90
41547;DHT22;27271;45.412;10.852;2024-03-02T06:50:47;10.20;26.50
41547;DHT22;27271;45.412;10.852;2024-03-02T06:54:12;10.20;26.60
41547;DHT22;27271;45.412;10.852;2024-03-02T06:57:34;10.20;45.80
41547;DHT22;27271;45.412;10.852;2024-03-02T07:00:56;10.20;27.60
41547;DHT22;27271;45.412;10.852;2024-03-02T07:04:18;10.30;39.70
41547;DHT22;27271;45.412;10.852;2024-03-02T07:07:40;10.30;25.80
41547;DHT22;27271;45.412;10.852;2024-03-02T07:11:02;10.30;37.60
41547;DHT22;27271;45.412;10.852;2024-03-02T07:14:24;10.30;53.10
41547;DHT22;27271;45.412;10.852;2024-03-02T07:18:06;10.30;44.80
41547;DHT22;27271;45.412;10.852;2024-03-02T07:21:28;10.30;63.80
41547;DHT22;27271;45.412;10.852;2024-03-02T07:24:51;10.20;91.50
41547;DHT22;27271;45.412;10.852;2024-03-02T07:28:13;10.20;99.90
41547;DHT22;27271;45.412;10.852;2024-03-02T07:31:36;10.20;99.90
41547;DHT22;27271;45.412;10.852;2024-03-02T07:34:58;10.10;99.90
41547;DHT22;27271;45.412;10.852;2024-03-02T07:38:20;10.10;99.90
41547;DHT22;27271;45.412;10.852;2024-03-02T07:41:43;10.10;99.90
41547;DHT22;27271;45.412;10.852;2024-03-02T07:45:07;10.10;99.90
41547;DHT22;27271;45.412;10.852;2024-03-02T07:48:29;10.10;99.90
41547;DHT22;27271;45.412;10.852;2024-03-02T07:51:52;10.10;99.90
41547;DHT22;27271;45.412;10.852;2024-03-02T07:55:15;10.10;99.90
41547;DHT22;27271;45.412;10.852;2024-03-02T07:58:37;10.10;99.90
41547;DHT22;27271;45.412;10.852;2024-03-02T08:01:59;10.20;99.90
41547;DHT22;27271;45.412;10.852;2024-03-02T08:05:21;10.20;99.90
41547;DHT22;27271;45.412;10.852;2024-03-02T08:08:43;10.20;99.90
41547;DHT22;27271;45.412;10.852;2024-03-02T08:12:05;10.30;99.90
41547;DHT22;27271;45.412;10.852;2024-03-02T08:15:27;10.30;99.90
41547;DHT22;27271;45.412;10.852;2024-03-02T08:18:50;10.30;99.90
41547;DHT22;27271;45.412;10.852;2024-03-02T08:22:12;10.40;99.90
41547;DHT22;27271;45.412;10.852;2024-03-02T08:25:34;10.40;99.90
41547;DHT22;27271;45.412;10.852;2024-03-02T08:29:00;10.40;99.90
41547;DHT22;27271;45.412;10.852;2024-03-02T08:32:23;10.50;99.90
41547;DHT22;27271;45.412;10.852;2024-03-02T08:35:45;10.50;99.90
41547;DHT22;27271;45.412;10.852;2024-03-02T08:39:08;10.40;99.90
41547;DHT22;27271;45.412;10.852;2024-03-02T08:42:37;10.50;99.90
41547;DHT22;27271;45.412;10.852;2024-03-02T08:45:59;10.50;99.90
41547;DHT22;27271;45.412;10.852;2024-03-02T08:49:22;10.60;99.90
41547;DHT22;27271;45.412;10.852;2024-03-02T08:52:44;10.60;99.90
41547;DHT22;27271;45.412;10.852;2024-03-02T08:56:06;10.70;99.90
41547;DHT22;27271;45.412;10.852;2024-03-02T08:59:28;10.70;99.90
41547;DHT22;27271;45.412;10.852;2024-03-02T09:02:50;10.70;99.90
41547;DHT22;27271;45.412;10.852;2024-03-02T09:06:13;10.70;99.90
41547;DHT22;27271;45.412;10.852;2024-03-02T09:09:36;10.70;99.90
41547;DHT22;27271;45.412;10.852;2024-03-02T09:13:00;10.70;99.90
41547;DHT22;27271;45.412;10.852;2024-03-02T09:16:23;10.80;99.90
41547;DHT22;27271;45.412;10.852;2024-03-02T09:19:46;10.70;99.90
41547;DHT22;27271;45.412;10.852;2024-03-02T09:23:15;10.80;99.90
41547;DHT22;27271;45.412;10.852;2024-03-02T09:26:40;10.90;99.90
41547;DHT22;27271;45.412;10.852;2024-03-02T09:30:02;10.90;99.90
41547;DHT22;27271;45.412;10.852;2024-03-02T09:33:26;10.90;99.90
41547;DHT22;27271;45.412;10.852;2024-03-02T09:36:49;11.00;99.90
41547;DHT22;27271;45.412;10.852;2024-03-02T09:40:13;11.00;99.90
41547;DHT22;27271;45.412;10.852;2024-03-02T09:43:36;11.00;99.90
41547;DHT22;27271;45.412;10.852;2024-03-02T09:46:58;10.90;99.90
41547;DHT22;27271;45.412;10.852;2024-03-02T09:50:20;11.00;99.90
41547;DHT22;27271;45.412;10.852;2024-03-02T09:53:42;10.90;99.90
41547;DHT22;27271;45.412;10.852;2024-03-02T09:57:05;10.90;99.90
41547;DHT22;27271;45.412;10.852;2024-03-02T10:00:27;11.00;99.90
41547;DHT22;27271;45.412;10.852;2024-03-02T10:03:49;11.00;99.90
41547;DHT22;27271;45.412;10.852;2024-03-02T10:07:13;10.90;99.90
41547;DHT22;27271;45.412;10.852;2024-03-02T10:10:36;11.00;99.90
41547;DHT22;27271;45.412;10.852;2024-03-02T10:14:06;11.10;99.90
41547;DHT22;27271;45.412;10.852;2024-03-02T10:17:32;11.20;99.90
41547;DHT22;27271;45.412;10.852;2024-03-02T10:20:54;11.30;99.90
41547;DHT22;27271;45.412;10.852;2024-03-02T10:24:21;11.30;99.90
41547;DHT22;27271;45.412;10.852;2024-03-02T10:27:44;11.20;99.90
41547;DHT22;27271;45.412;10.852;2024-03-02T10:31:06;11.30;99.90
41547;DHT22;27271;45.412;10.852;2024-03-02T10:34:32;11.10;99.90
41547;DHT22;27271;45.412;10.852;2024-03-02T10:37:55;11.20;99.90
41547;DHT22;27271;45.412;10.852;2024-03-02T10:41:19;11.10;99.90
41547;DHT22;27271;45.412;10.852;2024-03-02T10:44:45;11.20;99.90
41547;DHT22;27271;45.412;10.852;2024-03-02T10:48:09;11.20;99.90
41547;DHT22;27271;45.412;10.852;2024-03-02T10:51:34;11.30;99.90
41547;DHT22;27271;45.412;10.852;2024-03-02T10:54:58;11.30;99.90
41547;DHT22;27271;45.412;10.852;2024-03-02T10:58:22;11.30;99.90
41547;DHT22;27271;45.412;10.852;2024-03-02T11:01:48;11.40;99.90
41547;DHT22;27271;45.412;10.852;2024-03-02T11:05:20;11.50;99.90
41547;DHT22;27271;45.412;10.852;2024-03-02T11:08:58;11.50;99.90
41547;DHT22;27271;45.412;10.852;2024-03-02T11:12:48;11.40;99.90
41547;DHT22;27271;45.412;10.852;2024-03-02T11:16:33;11.50;99.90
41547;DHT22;27271;45.412;10.852;2024-03-02T11:20:05;11.60;99.90
41547;DHT22;27271;45.412;10.852;2024-03-02T11:23:34;11.80;99.90
41547;DHT22;27271;45.412;10.852;2024-03-02T11:26:57;11.70;99.90
41547;DHT22;27271;45.412;10.852;2024-03-02T11:33:54;11.80;99.90
41547;DHT22;27271;45.412;10.852;2024-03-02T11:37:18;11.70;87.10
41547;DHT22;27271;45.412;10.852;2024-03-02T11:40:41;11.60;99.90
41547;DHT22;27271;45.412;10.852;2024-03-02T11:44:04;11.80;99.90
41547;DHT22;27271;45.412;10.852;2024-03-02T11:47:31;11.80;99.90
41547;DHT22;27271;45.412;10.852;2024-03-02T11:50:58;11.80;99.90
41547;DHT22;27271;45.412;10.852;2024-03-02T11:54:21;11.80;99.90
41547;DHT22;27271;45.412;10.852;2024-03-02T11:57:44;11.90;96.70
41547;DHT22;27271;45.412;10.852;2024-03-02T12:01:06;11.90;97.80
41547;DHT22;27271;45.412;10.852;2024-03-02T12:04:29;12.10;99.90
41547;DHT22;27271;45.412;10.852;2024-03-02T12:08:07;12.30;81.10
41547;DHT22;27271;45.412;10.852;2024-03-02T12:11:30;12.50;76.80
41547;DHT22;27271;45.412;10.852;2024-03-02T12:14:55;12.80;1.00
41547;DHT22;27271;45.412;10.852;2024-03-02T12:18:17;12.90;16.60
41547;DHT22;27271;45.412;10.852;2024-03-02T12:21:40;12.80;26.10
41547;DHT22;27271;45.412;10.852;2024-03-02T12:25:05;12.80;15.50
41547;DHT22;27271;45.412;10.852;2024-03-02T12:28:28;12.40;56.30
41547;DHT22;27271;45.412;10.852;2024-03-02T12:31:53;12.40;49.80
41547;DHT22;27271;45.412;10.852;2024-03-02T12:35:24;12.10;98.20
41547;DHT22;27271;45.412;10.852;2024-03-02T12:38:46;12.00;99.90
41547;DHT22;27271;45.412;10.852;2024-03-02T12:42:12;12.00;99.90
41547;DHT22;27271;45.412;10.852;2024-03-02T12:45:37;11.90;91.20
41547;DHT22;27271;45.412;10.852;2024-03-02T12:49:08;11.70;99.90
41547;DHT22;27271;45.412;10.852;2024-03-02T12:52:32;11.50;99.30
41547;DHT22;27271;45.412;10.852;2024-03-02T12:55:56;11.50;99.10
41547;DHT22;27271;45.412;10.852;2024-03-02T12:59:20;11.50;99.90
41547;DHT22;27271;45.412;10.852;2024-03-02T13:02:46;11.70;99.90
41547;DHT22;27271;45.412;10.852;2024-03-02T13:06:08;11.80;89.90
41547;DHT22;27271;45.412;10.852;2024-03-02T13:09:34;11.90;97.00
41547;DHT22;27271;45.412;10.852;2024-03-02T13:12:57;12.00;99.90
41547;DHT22;27271;45.412;10.852;2024-03-02T13:16:19;12.00;53.20
41547;DHT22;27271;45.412;10.852;2024-03-02T13:19:58;11.90;61.20
41547;DHT22;27271;45.412;10.852;2024-03-02T13:23:20;12.10;99.90
41547;DHT22;27271;45.412;10.852;2024-03-02T13:26:42;12.30;29.30
41547;DHT22;27271;45.412;10.852;2024-03-02T13:30:05;12.40;7.20
41547;DHT22;27271;45.412;10.852;2024-03-02T13:33:27;12.50;48.20
41547;DHT22;27271;45.412;10.852;2024-03-02T13:36:49;12.30;1.00
41547;DHT22;27271;45.412;10.852;2024-03-02T13:40:12;12.30;30.50
41547;DHT22;27271;45.412;10.852;2024-03-02T13:43:40;12.10;5.60
41547;DHT22;27271;45.412;10.852;2024-03-02T13:47:03;12.20;36.10
41547;DHT22;27271;45.412;10.852;2024-03-02T13:50:25;12.30;13.20
41547;DHT22;27271;45.412;10.852;2024-03-02T13:53:47;12.30;1.60
41547;DHT22;27271;45.412;10.852;2024-03-02T13:57:10;12.30;1.00
41547;DHT22;27271;45.412;10.852;2024-03-02T14:00:33;12.30;1.00
41547;DHT22;27271;45.412;10.852;2024-03-02T14:03:55;12.00;1.00
41547;DHT22;27271;45.412;10.852;2024-03-02T14:07:17;11.90;1.00
41547;DHT22;27271;45.412;10.852;2024-03-02T14:10:40;12.00;1.00
41547;DHT22;27271;45.412;10.852;2024-03-02T14:14:02;11.90;1.00
41547;DHT22;27271;45.412;10.852;2024-03-02T14:17:25;11.80;16.60
41547;DHT22;27271;45.412;10.852;2024-03-02T14:20:47;11.70;1.00
41547;DHT22;27271;45.412;10.852;2024-03-02T14:24:14;11.70;31.10
41547;DHT22;27271;45.412;10.852;2024-03-02T14:27:36;11.80;35.40
41547;DHT22;27271;45.412;10.852;2024-03-02T14:31:18;11.80;33.10
41547;DHT22;27271;45.412;10.852;2024-03-02T14:34:41;11.70;1.00
41547;DHT22;27271;45.412;10.852;2024-03-02T14:38:04;11.70;1.00
41547;DHT22;27271;45.412;10.852;2024-03-02T14:41:26;11.60;1.00
41547;DHT22;27271;45.412;10.852;2024-03-02T14:44:48;11.60;1.00
41547;DHT22;27271;45.412;10.852;2024-03-02T14:48:10;11.60;1.70
41547;DHT22;27271;45.412;10.852;2024-03-02T14:51:32;11.60;10.70
41547;DHT22;27271;45.412;10.852;2024-03-02T14:54:54;11.60;10.80
41547;DHT22;27271;45.412;10.852;2024-03-02T14:58:16;11.70;43.90
41547;DHT22;27271;45.412;10.852;2024-03-02T15:01:39;11.60;43.40
41547;DHT22;27271;45.412;10.852;2024-03-02T15:05:02;11.60;52.90
41547;DHT22;27271;45.412;10.852;2024-03-02T15:08:24;11.50;14.80
41547;DHT22;27271;45.412;10.852;2024-03-02T15:11:47;11.50;72.80
41547;DHT22;27271;45.412;10.852;2024-03-02T15:15:09;11.50;70.80
41547;DHT22;27271;45.412;10.852;2024-03-02T15:18:33;11.50;61.90
41547;DHT22;27271;45.412;10.852;2024-03-02T15:21:57;11.50;60.20
41547;DHT22;27271;45.412;10.852;2024-03-02T15:25:19;11.50;67.00
41547;DHT22;27271;45.412;10.852;2024-03-02T15:28:41;11.50;89.90
41547;DHT22;27271;45.412;10.852;2024-03-02T15:32:03;11.50;56.10
41547;DHT22;27271;45.412;10.852;2024-03-02T15:35:29;11.50;13.10
41547;DHT22;27271;45.412;10.852;2024-03-02T15:38:53;11.40;14.40
41547;DHT22;27271;45.412;10.852;2024-03-02T15:42:15;11.30;25.30
41547;DHT22;27271;45.412;10.852;2024-03-02T15:45:37;11.30;78.70
41547;DHT22;27271;45.412;10.852;2024-03-02T15:48:59;11.20;79.10
41547;DHT22;27271;45.412;10.852;2024-03-02T15:52:25;11.20;85.60
41547;DHT22;27271;45.412;10.852;2024-03-02T15:55:47;11.10;88.70
41547;DHT22;27271;45.412;10.852;2024-03-02T15:59:09;11.00;88.60
41547;DHT22;27271;45.412;10.852;2024-03-02T16:02:32;11.00;95.00
41547;DHT22;27271;45.412;10.852;2024-03-02T16:05:54;11.00;96.80
41547;DHT22;27271;45.412;10.852;2024-03-02T16:09:16;11.00;99.90
41547;DHT22;27271;45.412;10.852;2024-03-02T16:12:38;11.00;99.90
41547;DHT22;27271;45.412;10.852;2024-03-02T16:16:00;11.00;99.90
41547;DHT22;27271;45.412;10.852;2024-03-02T16:19:22;11.00;99.90
41547;DHT22;27271;45.412;10.852;2024-03-02T16:22:53;10.90;99.90
41547;DHT22;27271;45.412;10.852;2024-03-02T16:26:16;10.90;99.90
41547;DHT22;27271;45.412;10.852;2024-03-02T16:29:38;10.90;99.90
41547;DHT22;27271;45.412;10.852;2024-03-02T16:33:01;10.90;99.90
41547;DHT22;27271;45.412;10.852;2024-03-02T16:36:23;10.80;99.90
41547;DHT22;27271;45.412;10.852;2024-03-02T16:39:45;10.80;99.90
41547;DHT22;27271;45.412;10.852;2024-03-02T16:43:08;10.70;99.90
41547;DHT22;27271;45.412;10.852;2024-03-02T16:46:31;10.60;99.90
41547;DHT22;27271;45.412;10.852;2024-03-02T16:49:53;10.50;99.90
41547;DHT22;27271;45.412;10.852;2024-03-02T16:53:20;10.50;99.90
41547;DHT22;27271;45.412;10.852;2024-03-02T16:56:44;10.40;99.90
41547;DHT22;27271;45.412;10.852;2024-03-02T17:00:08;10.30;99.90
41547;DHT22;27271;45.412;10.852;2024-03-02T17:03:30;10.30;99.90
41547;DHT22;27271;45.412;10.852;2024-03-02T17:06:53;10.20;99.90
41547;DHT22;27271;45.412;10.852;2024-03-02T17:10:15;10.10;99.90
41547;DHT22;27271;45.412;10.852;2024-03-02T17:13:37;9.90;99.90
41547;DHT22;27271;45.412;10.852;2024-03-02T17:16:59;9.80;99.90
41547;DHT22;27271;45.412;10.852;2024-03-02T17:20:22;9.80;99.90
41547;DHT22;27271;45.412;10.852;2024-03-02T17:23:45;9.80;99.90
41547;DHT22;27271;45.412;10.852;2024-03-02T17:27:08;9.80;99.90
41547;DHT22;27271;45.412;10.852;2024-03-02T17:30:30;9.80;99.90
41547;DHT22;27271;45.412;10.852;2024-03-02T17:33:52;9.80;99.90
41547;DHT22;27271;45.412;10.852;2024-03-02T17:37:14;9.70;99.90
41547;DHT22;27271;45.412;10.852;2024-03-02T17:40:36;9.70;99.90
41547;DHT22;27271;45.412;10.852;2024-03-02T17:43:59;9.70;99.90
41547;DHT22;27271;45.412;10.852;2024-03-02T17:47:21;9.60;1.00
41547;DHT22;27271;45.412;10.852;2024-03-02T17:50:43;9.70;1.00
41547;DHT22;27271;45.412;10.852;2024-03-02T17:54:05;9.70;1.00
41547;DHT22;27271;45.412;10.852;2024-03-02T17:57:28;9.60;99.90
41547;DHT22;27271;45.412;10.852;2024-03-02T18:00:50;9.50;1.00
41547;DHT22;27271;45.412;10.852;2024-03-02T18:04:14;9.50;1.00
41547;DHT22;27271;45.412;10.852;2024-03-02T18:07:36;9.50;1.00
41547;DHT22;27271;45.412;10.852;2024-03-02T18:11:00;9.50;1.00
41547;DHT22;27271;45.412;10.852;2024-03-02T18:14:22;9.50;1.00
41547;DHT22;27271;45.412;10.852;2024-03-02T18:17:49;9.50;1.00
41547;DHT22;27271;45.412;10.852;2024-03-02T18:21:11;9.50;1.00
41547;DHT22;27271;45.412;10.852;2024-03-02T18:24:36;9.50;1.00
41547;DHT22;27271;45.412;10.852;2024-03-02T18:27:59;9.40;1.00
41547;DHT22;27271;45.412;10.852;2024-03-02T18:31:21;9.40;1.00
41547;DHT22;27271;45.412;10.852;2024-03-02T18:34:44;9.50;1.00
41547;DHT22;27271;45.412;10.852;2024-03-02T18:38:06;9.50;1.00
41547;DHT22;27271;45.412;10.852;2024-03-02T18:41:28;9.50;13.70
41547;DHT22;27271;45.412;10.852;2024-03-02T18:44:50;9.60;18.00
41547;DHT22;27271;45.412;10.852;2024-03-02T18:48:12;9.60;13.90
41547;DHT22;27271;45.412;10.852;2024-03-02T18:51:35;9.60;1.00
41547;DHT22;27271;45.412;10.852;2024-03-02T18:54:57;9.50;1.00
41547;DHT22;27271;45.412;10.852;2024-03-02T18:58:20;9.50;2.90
41547;DHT22;27271;45.412;10.852;2024-03-02T19:01:42;9.40;6.40
41547;DHT22;27271;45.412;10.852;2024-03-02T19:05:05;9.40;1.00
41547;DHT22;27271;45.412;10.852;2024-03-02T19:08:28;9.40;1.00
41547;DHT22;27271;45.412;10.852;2024-03-02T19:11:50;9.40;1.00
41547;DHT22;27271;45.412;10.852;2024-03-02T19:15:12;9.40;15.20
41547;DHT22;27271;45.412;10.852;2024-03-02T19:18:36;9.40;9.10
41547;DHT22;27271;45.412;10.852;2024-03-02T19:22:00;9.30;1.00
41547;DHT22;27271;45.412;10.852;2024-03-02T19:25:31;9.30;16.50
41547;DHT22;27271;45.412;10.852;2024-03-02T19:28:53;9.30;49.60
41547;DHT22;27271;45.412;10.852;2024-03-02T19:32:15;9.20;56.00
41547;DHT22;27271;45.412;10.852;2024-03-02T19:35:42;9.20;67.10
41547;DHT22;27271;45.412;10.852;2024-03-02T19:39:04;9.30;99.40
41547;DHT22;27271;45.412;10.852;2024-03-02T19:42:26;9.40;99.90
41547;DHT22;27271;45.412;10.852;2024-03-02T19:45:50;9.30;77.30
41547;DHT22;27271;45.412;10.852;2024-03-02T19:49:12;9.30;80.20
41547;DHT22;27271;45.412;10.852;2024-03-02T19:52:34;9.20;99.90
41547;DHT22;27271;45.412;10.852;2024-03-02T19:55:56;9.30;99.90
41547;DHT22;27271;45.412;10.852;2024-03-02T19:59:19;9.30;99.90
41547;DHT22;27271;45.412;10.852;2024-03-02T20:02:41;9.20;99.90
41547;DHT22;27271;45.412;10.852;2024-03-02T20:06:04;9.20;99.90
41547;DHT22;27271;45.412;10.852;2024-03-02T20:09:26;9.10;99.90
41547;DHT22;27271;45.412;10.852;2024-03-02T20:12:49;9.10;99.90
41547;DHT22;27271;45.412;10.852;2024-03-02T20:16:11;9.10;99.90
41547;DHT22;27271;45.412;10.852;2024-03-02T20:19:38;9.00;99.90
41547;DHT22;27271;45.412;10.852;2024-03-02T20:23:01;9.00;99.90
41547;DHT22;27271;45.412;10.852;2024-03-02T20:26:23;9.00;99.90
41547;DHT22;27271;45.412;10.852;2024-03-02T20:29:45;9.00;99.90
41547;DHT22;27271;45.412;10.852;2024-03-02T20:33:08;8.90;99.90
41547;DHT22;27271;45.412;10.852;2024-03-02T20:36:30;8.90;99.90
41547;DHT22;27271;45.412;10.852;2024-03-02T20:39:52;8.90;99.90
41547;DHT22;27271;45.412;10.852;2024-03-02T20:43:16;8.70;99.90
41547;DHT22;27271;45.412;10.852;2024-03-02T20:46:38;8.60;99.90
41547;DHT22;27271;45.412;10.852;2024-03-02T20:50:01;8.60;99.90
41547;DHT22;27271;45.412;10.852;2024-03-02T20:53:24;8.40;86.90
41547;DHT22;27271;45.412;10.852;2024-03-02T20:56:46;8.30;96.40
41547;DHT22;27271;45.412;10.852;2024-03-02T21:00:09;8.20;99.90
41547;DHT22;27271;45.412;10.852;2024-03-02T21:03:31;8.30;99.90
41547;DHT22;27271;45.412;10.852;2024-03-02T21:06:55;8.20;99.90
41547;DHT22;27271;45.412;10.852;2024-03-02T21:10:17;8.10;99.90
41547;DHT22;27271;45.412;10.852;2024-03-02T21:13:39;8.20;99.90
41547;DHT22;27271;45.412;10.852;2024-03-02T21:17:02;8.20;99.90
41547;DHT22;27271;45.412;10.852;2024-03-02T21:20:24;8.20;99.90